sensor_id;sensor_type;location;lat;lon;timestamp;temperature;humidity
47805;DHT22;33568;45.286;9.900;2023-10-13T00:01:14;22.70;92.60
47805;DHT22;33568;45.286;9.900;2023-10-13T00:03:40;22.70;92.70
47805;DHT22;33568;45.286;9.900;2023-10-13T00:06:44;22.70;92.70
47805;DHT22;33568;45.286;9.900;2023-10-13T00:12:34;22.70;92.50
47805;DHT22;33568;45.286;9.900;2023-10-13T00:15:18;22.60;92.50
47805;DHT22;33568;45.286;9.900;2023-10-13T00:17:54;22.60;92.40
47805;DHT22;33568;45.286;9.900;2023-10-13T00:20:21;22.60;92.50
47805;DHT22;33568;45.286;9.900;2023-10-13T00:25:53;22.60;92.40
47805;DHT22;33568;45.286;9.900;2023-10-13T00:28:24;22.60;92.40
47805;DHT22;33568;45.286;9.900;2023-10-13T00:30:54;22.60;92.50
47805;DHT22;33568;45.286;9.900;2023-10-13T00:33:59;22.60;92.50
47805;DHT22;33568;45.286;9.900;2023-10-13T00:39:53;22.50;92.50
47805;DHT22;33568;45.286;9.900;2023-10-13T00:42:41;22.50;92.50
47805;DHT22;33568;45.286;9.900;2023-10-13T00:48:02;22.50;92.40
47805;DHT22;33568;45.286;9.900;2023-10-13T00:50:36;22.40;92.50
47805;DHT22;33568;45.286;9.900;2023-10-13T00:53:04;22.40;92.70
47805;DHT22;33568;45.286;9.900;2023-10-13T00:55:31;22.50;92.50
47805;DHT22;33568;45.286;9.900;2023-10-13T00:58:18;22.40;92.60
47805;DHT22;33568;45.286;9.900;2023-10-13T01:00:52;22.40;92.50
47805;DHT22;33568;45.286;9.900;2023-10-13T01:04:02;22.40;92.70
47805;DHT22;33568;45.286;9.900;2023-10-13T01:06:50;22.50;92.70
47805;DHT22;33568;45.286;9.900;2023-10-13T01:09:17;22.40;92.80
47805;DHT22;33568;45.286;9.900;2023-10-13T01:14:30;22.40;92.90
47805;DHT22;33568;45.286;9.900;2023-10-13T01:16:56;22.40;92.90
47805;DHT22;33568;45.286;9.900;2023-10-13T01:19:24;22.40;93.00
47805;DHT22;33568;45.286;9.900;2023-10-13T01:21:52;22.50;93.00
47805;DHT22;33568;45.286;9.900;2023-10-13T01:24:31;22.50;93.00
47805;DHT22;33568;45.286;9.900;2023-10-13T01:27:02;22.40;93.00
47805;DHT22;33568;45.286;9.900;2023-10-13T01:29:44;22.50;93.10
47805;DHT22;33568;45.286;9.900;2023-10-13T01:32:17;22.40;93.20
47805;DHT22;33568;45.286;9.900;2023-10-13T01:34:44;22.40;93.30
47805;DHT22;33568;45.286;9.900;2023-10-13T01:37:16;22.30;93.40
47805;DHT22;33568;45.286;9.900;2023-10-13T01:40:01;22.30;93.40
47805;DHT22;33568;45.286;9.900;2023-10-13T01:42:27;22.30;93.40
47805;DHT22;33568;45.286;9.900;2023-10-13T01:44:56;22.30;93.50
47805;DHT22;33568;45.286;9.900;2023-10-13T01:47:32;22.30;93.60
47805;DHT22;33568;45.286;9.900;2023-10-13T01:50:03;22.30;93.60
47805;DHT22;33568;45.286;9.900;2023-10-13T01:52:40;22.30;93.60
47805;DHT22;33568;45.286;9.900;2023-10-13T01:55:08;22.30;93.60
47805;DHT22;33568;45.286;9.900;2023-10-13T01:57:37;22.40;93.60
47805;DHT22;33568;45.286;9.900;2023-10-13T02:00:22;22.40;93.70
47805;DHT22;33568;45.286;9.900;2023-10-13T02:02:48;22.50;93.70
47805;DHT22;33568;45.286;9.900;2023-10-13T02:05:17;22.60;93.70
47805;DHT22;33568;45.286;9.900;2023-10-13T02:07:44;22.60;93.70
47805;DHT22;33568;45.286;9.900;2023-10-13T02:10:31;22.70;93.60
47805;DHT22;33568;45.286;9.900;2023-10-13T02:12:58;22.60;93.50
47805;DHT22;33568;45.286;9.900;2023-10-13T02:15:47;22.60;93.50
47805;DHT22;33568;45.286;9.900;2023-10-13T02:18:16;22.60;93.50
47805;DHT22;33568;45.286;9.900;2023-10-13T02:21:25;22.60;93.40
47805;DHT22;33568;45.286;9.900;2023-10-13T02:27:10;22.60;93.60
47805;DHT22;33568;45.286;9.900;2023-10-13T02:29:40;22.80;93.70
47805;DHT22;33568;45.286;9.900;2023-10-13T02:32:07;22.90;93.60
47805;DHT22;33568;45.286;9.900;2023-10-13T02:34:45;23.00;93.40
47805;DHT22;33568;45.286;9.900;2023-10-13T02:37:12;23.10;93.30
47805;DHT22;33568;45.286;9.900;2023-10-13T02:42:26;23.30;93.10
47805;DHT22;33568;45.286;9.900;2023-10-13T02:44:53;23.40;92.90
47805;DHT22;33568;45.286;9.900;2023-10-13T02:47:22;23.40;92.70
47805;DHT22;33568;45.286;9.900;2023-10-13T02:50:27;23.30;92.60
47805;DHT22;33568;45.286;9.900;2023-10-13T02:55:58;23.30;92.70
47805;DHT22;33568;45.286;9.900;2023-10-13T02:58:32;23.30;92.70
47805;DHT22;33568;45.286;9.900;2023-10-13T03:01:06;23.30;92.50
47805;DHT22;33568;45.286;9.900;2023-10-13T03:03:48;23.20;92.50
47805;DHT22;33568;45.286;9.900;2023-10-13T03:09:19;23.10;92.70
47805;DHT22;33568;45.286;9.900;2023-10-13T03:11:48;23.20;92.60
47805;DHT22;33568;45.286;9.900;2023-10-13T03:14:18;23.10;92.70
47805;DHT22;33568;45.286;9.900;2023-10-13T03:19:59;23.00;92.30
47805;DHT22;33568;45.286;9.900;2023-10-13T03:22:26;22.80;92.50
47805;DHT22;33568;45.286;9.900;2023-10-13T03:28:03;22.70;92.80
47805;DHT22;33568;45.286;9.900;2023-10-13T03:30:33;22.70;92.90
47805;DHT22;33568;45.286;9.900;2023-10-13T03:33:26;22.70;92.90
47805;DHT22;33568;45.286;9.900;2023-10-13T03:35:52;22.60;93.10
47805;DHT22;33568;45.286;9.900;2023-10-13T03:41:39;22.70;93.20
47805;DHT22;33568;45.286;9.900;2023-10-13T03:46:57;22.70;93.20
47805;DHT22;33568;45.286;9.900;2023-10-13T03:49:23;22.70;93.20
47805;DHT22;33568;45.286;9.900;2023-10-13T03:52:08;22.70;93.10
47805;DHT22;33568;45.286;9.900;2023-10-13T03:55:11;22.70;93.20
47805;DHT22;33568;45.286;9.900;2023-10-13T03:57:56;22.70;93.30
47805;DHT22;33568;45.286;9.900;2023-10-13T04:00:26;22.70;93.20
47805;DHT22;33568;45.286;9.900;2023-10-13T04:03:14;22.60;93.10
47805;DHT22;33568;45.286;9.900;2023-10-13T04:05:45;22.60;92.90
47805;DHT22;33568;45.286;9.900;2023-10-13T04:08:27;22.60;93.20
47805;DHT22;33568;45.286;9.900;2023-10-13T04:14:53;22.50;93.20
47805;DHT22;33568;45.286;9.900;2023-10-13T04:17:34;22.40;93.30
47805;DHT22;33568;45.286;9.900;2023-10-13T04:20:07;22.40;93.50
47805;DHT22;33568;45.286;9.900;2023-10-13T04:22:51;22.30;93.50
47805;DHT22;33568;45.286;9.900;2023-10-13T04:25:24;22.30;93.60
47805;DHT22;33568;45.286;9.900;2023-10-13T04:28:12;22.30;93.70
47805;DHT22;33568;45.286;9.900;2023-10-13T04:30:49;22.20;93.80
47805;DHT22;33568;45.286;9.900;2023-10-13T04:33:34;22.20;93.80
47805;DHT22;33568;45.286;9.900;2023-10-13T04:36:19;22.10;93.90
47805;DHT22;33568;45.286;9.900;2023-10-13T04:39:13;22.10;94.00
47805;DHT22;33568;45.286;9.900;2023-10-13T04:42:14;22.10;94.00
47805;DHT22;33568;45.286;9.900;2023-10-13T04:44:53;22.10;94.10
47805;DHT22;33568;45.286;9.900;2023-10-13T04:47:45;22.20;94.30
47805;DHT22;33568;45.286;9.900;2023-10-13T04:50:23;22.20;94.10
47805;DHT22;33568;45.286;9.900;2023-10-13T04:53:00;22.20;94.30
47805;DHT22;33568;45.286;9.900;2023-10-13T04:55:28;22.30;94.40
47805;DHT22;33568;45.286;9.900;2023-10-13T04:58:31;22.50;94.10
47805;DHT22;33568;45.286;9.900;2023-10-13T05:01:02;22.70;94.00
47805;DHT22;33568;45.286;9.900;2023-10-13T05:03:47;22.80;93.80
47805;DHT22;33568;45.286;9.900;2023-10-13T05:06:58;22.80;93.60
47805;DHT22;33568;45.286;9.900;2023-10-13T05:10:01;22.90;93.70
47805;DHT22;33568;45.286;9.900;2023-10-13T05:13:19;23.00;92.90
47805;DHT22;33568;45.286;9.900;2023-10-13T05:16:23;23.00;93.10
47805;DHT22;33568;45.286;9.900;2023-10-13T05:19:26;23.10;92.90
47805;DHT22;33568;45.286;9.900;2023-10-13T05:22:31;23.10;92.70
47805;DHT22;33568;45.286;9.900;2023-10-13T05:25:16;23.10;92.60
47805;DHT22;33568;45.286;9.900;2023-10-13T05:31:43;22.90;92.50
47805;DHT22;33568;45.286;9.900;2023-10-13T05:34:27;22.90;92.80
47805;DHT22;33568;45.286;9.900;2023-10-13T05:37:32;22.80;92.80
47805;DHT22;33568;45.286;9.900;2023-10-13T05:40:35;22.70;92.80
47805;DHT22;33568;45.286;9.900;2023-10-13T05:43:40;22.70;92.90
47805;DHT22;33568;45.286;9.900;2023-10-13T05:46:44;22.70;92.90
47805;DHT22;33568;45.286;9.900;2023-10-13T05:49:27;22.70;92.70
47805;DHT22;33568;45.286;9.900;2023-10-13T05:52:12;22.70;93.00
47805;DHT22;33568;45.286;9.900;2023-10-13T05:54:46;22.70;92.90
47805;DHT22;33568;45.286;9.900;2023-10-13T06:00:39;22.80;92.80
47805;DHT22;33568;45.286;9.900;2023-10-13T06:07:06;22.90;92.30
47805;DHT22;33568;45.286;9.900;2023-10-13T06:09:51;22.70;92.20
47805;DHT22;33568;45.286;9.900;2023-10-13T06:12:35;22.40;92.80
47805;DHT22;33568;45.286;9.900;2023-10-13T06:15:21;22.50;93.00
47805;DHT22;33568;45.286;9.900;2023-10-13T06:18:24;22.50;93.00
47805;DHT22;33568;45.286;9.900;2023-10-13T06:21:28;22.40;93.10
47805;DHT22;33568;45.286;9.900;2023-10-13T06:27:35;22.60;92.90
47805;DHT22;33568;45.286;9.900;2023-10-13T06:30:20;22.70;92.70
47805;DHT22;33568;45.286;9.900;2023-10-13T06:38:41;22.90;92.40
47805;DHT22;33568;45.286;9.900;2023-10-13T06:41:08;22.90;92.30
47805;DHT22;33568;45.286;9.900;2023-10-13T06:47:35;23.00;92.20
47805;DHT22;33568;45.286;9.900;2023-10-13T06:50:27;23.10;92.00
47805;DHT22;33568;45.286;9.900;2023-10-13T06:52:55;23.10;91.90
47805;DHT22;33568;45.286;9.900;2023-10-13T06:55:21;23.20;92.00
47805;DHT22;33568;45.286;9.900;2023-10-13T06:57:57;23.20;91.80
47805;DHT22;33568;45.286;9.900;2023-10-13T07:03:30;23.20;91.90
47805;DHT22;33568;45.286;9.900;2023-10-13T07:06:15;23.20;92.00
47805;DHT22;33568;45.286;9.900;2023-10-13T07:09:03;23.30;91.90
47805;DHT22;33568;45.286;9.900;2023-10-13T07:14:49;23.30;91.90
47805;DHT22;33568;45.286;9.900;2023-10-13T07:17:34;23.30;91.90
47805;DHT22;33568;45.286;9.900;2023-10-13T07:20:06;23.30;91.90
47805;DHT22;33568;45.286;9.900;2023-10-13T07:22:50;23.30;91.90
47805;DHT22;33568;45.286;9.900;2023-10-13T07:26:06;23.40;92.00
47805;DHT22;33568;45.286;9.900;2023-10-13T07:28:34;23.40;92.00
47805;DHT22;33568;45.286;9.900;2023-10-13T07:31:28;23.40;92.00
47805;DHT22;33568;45.286;9.900;2023-10-13T07:33:54;23.40;92.10
47805;DHT22;33568;45.286;9.900;2023-10-13T07:36:40;23.50;92.00
47805;DHT22;33568;45.286;9.900;2023-10-13T07:41:52;23.60;91.70
47805;DHT22;33568;45.286;9.900;2023-10-13T07:44:30;23.70;91.70
47805;DHT22;33568;45.286;9.900;2023-10-13T07:47:03;23.60;91.70
47805;DHT22;33568;45.286;9.900;2023-10-13T07:49:36;23.50;92.00
47805;DHT22;33568;45.286;9.900;2023-10-13T07:55:11;23.10;92.60
47805;DHT22;33568;45.286;9.900;2023-10-13T07:57:38;23.20;92.70
47805;DHT22;33568;45.286;9.900;2023-10-13T08:00:23;23.40;92.60
47805;DHT22;33568;45.286;9.900;2023-10-13T08:03:13;23.50;92.40
47805;DHT22;33568;45.286;9.900;2023-10-13T08:05:39;23.60;92.30
47805;DHT22;33568;45.286;9.900;2023-10-13T08:08:40;23.60;92.40
47805;DHT22;33568;45.286;9.900;2023-10-13T08:11:14;23.60;92.40
47805;DHT22;33568;45.286;9.900;2023-10-13T08:13:50;23.60;92.40
47805;DHT22;33568;45.286;9.900;2023-10-13T08:16:23;23.60;92.40
47805;DHT22;33568;45.286;9.900;2023-10-13T08:19:08;23.60;92.40
47805;DHT22;33568;45.286;9.900;2023-10-13T08:21:36;23.60;92.30
47805;DHT22;33568;45.286;9.900;2023-10-13T08:24:21;23.60;92.10
47805;DHT22;33568;45.286;9.900;2023-10-13T08:26:53;23.60;92.10
47805;DHT22;33568;45.286;9.900;2023-10-13T08:29:57;23.70;91.90
47805;DHT22;33568;45.286;9.900;2023-10-13T08:32:28;23.80;91.80
47805;DHT22;33568;45.286;9.900;2023-10-13T08:34:59;24.00;91.70
47805;DHT22;33568;45.286;9.900;2023-10-13T08:37:31;24.20;91.40
47805;DHT22;33568;45.286;9.900;2023-10-13T08:40:36;24.20;91.00
47805;DHT22;33568;45.286;9.900;2023-10-13T08:43:42;24.20;91.20
47805;DHT22;33568;45.286;9.900;2023-10-13T08:46:11;24.40;90.90
47805;DHT22;33568;45.286;9.900;2023-10-13T08:48:56;24.50;90.70
47805;DHT22;33568;45.286;9.900;2023-10-13T08:51:42;24.80;90.50
47805;DHT22;33568;45.286;9.900;2023-10-13T08:54:45;25.20;89.90
47805;DHT22;33568;45.286;9.900;2023-10-13T08:57:47;25.40;88.70
47805;DHT22;33568;45.286;9.900;2023-10-13T09:00:16;25.60;87.80
47805;DHT22;33568;45.286;9.900;2023-10-13T09:03:05;25.60;87.50
47805;DHT22;33568;45.286;9.900;2023-10-13T09:05:51;25.90;86.60
47805;DHT22;33568;45.286;9.900;2023-10-13T09:08:36;26.30;85.50
47805;DHT22;33568;45.286;9.900;2023-10-13T09:14:42;27.00;82.80
47805;DHT22;33568;45.286;9.900;2023-10-13T09:17:13;27.80;81.20
47805;DHT22;33568;45.286;9.900;2023-10-13T09:19:46;28.00;78.70
47805;DHT22;33568;45.286;9.900;2023-10-13T09:22:34;28.20;77.80
47805;DHT22;33568;45.286;9.900;2023-10-13T09:28:54;28.70;75.40
47805;DHT22;33568;45.286;9.900;2023-10-13T09:31:38;28.90;74.80
47805;DHT22;33568;45.286;9.900;2023-10-13T09:34:05;29.30;73.80
47805;DHT22;33568;45.286;9.900;2023-10-13T09:36:32;29.50;72.40
47805;DHT22;33568;45.286;9.900;2023-10-13T09:39:03;29.80;71.70
47805;DHT22;33568;45.286;9.900;2023-10-13T09:45:02;30.30;70.70
47805;DHT22;33568;45.286;9.900;2023-10-13T09:47:31;30.80;69.90
47805;DHT22;33568;45.286;9.900;2023-10-13T09:50:21;31.00;68.80
47805;DHT22;33568;45.286;9.900;2023-10-13T09:53:25;31.00;68.00
47805;DHT22;33568;45.286;9.900;2023-10-13T09:56:16;30.60;66.10
47805;DHT22;33568;45.286;9.900;2023-10-13T10:01:29;29.90;68.40
47805;DHT22;33568;45.286;9.900;2023-10-13T10:04:19;29.90;68.90
47805;DHT22;33568;45.286;9.900;2023-10-13T10:07:27;30.10;68.80
47805;DHT22;33568;45.286;9.900;2023-10-13T10:10:00;30.50;66.50
47805;DHT22;33568;45.286;9.900;2023-10-13T10:17:46;31.40;65.30
47805;DHT22;33568;45.286;9.900;2023-10-13T10:20:16;31.40;65.50
47805;DHT22;33568;45.286;9.900;2023-10-13T10:23:28;31.10;65.10
47805;DHT22;33568;45.286;9.900;2023-10-13T10:26:21;31.00;64.80
47805;DHT22;33568;45.286;9.900;2023-10-13T10:31:33;31.30;65.40
47805;DHT22;33568;45.286;9.900;2023-10-13T10:34:19;31.80;64.20
47805;DHT22;33568;45.286;9.900;2023-10-13T10:39:52;32.50;63.20
47805;DHT22;33568;45.286;9.900;2023-10-13T10:42:23;32.80;62.00
47805;DHT22;33568;45.286;9.900;2023-10-13T10:45:11;33.00;61.40
47805;DHT22;33568;45.286;9.900;2023-10-13T10:47:56;33.40;60.20
47805;DHT22;33568;45.286;9.900;2023-10-13T10:50:25;33.70;58.70
47805;DHT22;33568;45.286;9.900;2023-10-13T10:53:17;33.80;59.00
47805;DHT22;33568;45.286;9.900;2023-10-13T10:55:44;34.00;59.60
47805;DHT22;33568;45.286;9.900;2023-10-13T10:58:10;34.20;59.10
47805;DHT22;33568;45.286;9.900;2023-10-13T11:01:07;34.30;58.00
47805;DHT22;33568;45.286;9.900;2023-10-13T11:03:58;34.30;56.80
47805;DHT22;33568;45.286;9.900;2023-10-13T11:06:26;34.30;57.90
47805;DHT22;33568;45.286;9.900;2023-10-13T11:09:05;34.30;57.50
47805;DHT22;33568;45.286;9.900;2023-10-13T11:11:51;33.90;56.50
47805;DHT22;33568;45.286;9.900;2023-10-13T11:17:48;34.10;56.20
47805;DHT22;33568;45.286;9.900;2023-10-13T11:20:21;34.50;57.40
47805;DHT22;33568;45.286;9.900;2023-10-13T11:23:01;34.80;57.10
47805;DHT22;33568;45.286;9.900;2023-10-13T11:25:31;35.00;56.40
47805;DHT22;33568;45.286;9.900;2023-10-13T11:28:15;35.30;55.80
47805;DHT22;33568;45.286;9.900;2023-10-13T11:30:47;35.60;53.10
47805;DHT22;33568;45.286;9.900;2023-10-13T11:33:18;35.50;53.50
47805;DHT22;33568;45.286;9.900;2023-10-13T11:36:08;35.30;53.70
47805;DHT22;33568;45.286;9.900;2023-10-13T11:38:49;35.40;54.10
47805;DHT22;33568;45.286;9.900;2023-10-13T11:41:16;35.50;54.20
47805;DHT22;33568;45.286;9.900;2023-10-13T11:44:01;35.60;55.00
47805;DHT22;33568;45.286;9.900;2023-10-13T11:47:05;35.70;54.20
47805;DHT22;33568;45.286;9.900;2023-10-13T11:49:54;35.60;53.90
47805;DHT22;33568;45.286;9.900;2023-10-13T11:52:22;35.60;53.20
47805;DHT22;33568;45.286;9.900;2023-10-13T11:54:52;35.80;53.30
47805;DHT22;33568;45.286;9.900;2023-10-13T11:57:18;36.00;52.90
47805;DHT22;33568;45.286;9.900;2023-10-13T11:59:46;36.10;52.90
47805;DHT22;33568;45.286;9.900;2023-10-13T12:02:37;36.10;51.80
47805;DHT22;33568;45.286;9.900;2023-10-13T12:05:22;35.40;52.00
47805;DHT22;33568;45.286;9.900;2023-10-13T12:11:16;34.20;53.70
47805;DHT22;33568;45.286;9.900;2023-10-13T12:13:57;34.30;54.20
47805;DHT22;33568;45.286;9.900;2023-10-13T12:16:24;34.30;54.20
47805;DHT22;33568;45.286;9.900;2023-10-13T12:19:00;34.00;53.10
47805;DHT22;33568;45.286;9.900;2023-10-13T12:22:04;33.90;54.00
47805;DHT22;33568;45.286;9.900;2023-10-13T12:24:34;34.00;52.40
47805;DHT22;33568;45.286;9.900;2023-10-13T12:27:19;34.10;53.40
47805;DHT22;33568;45.286;9.900;2023-10-13T12:32:42;33.00;53.60
47805;DHT22;33568;45.286;9.900;2023-10-13T12:35:42;32.30;54.90
47805;DHT22;33568;45.286;9.900;2023-10-13T12:41:19;31.50;57.00
47805;DHT22;33568;45.286;9.900;2023-10-13T12:44:06;31.10;57.00
47805;DHT22;33568;45.286;9.900;2023-10-13T12:47:09;30.90;57.60
47805;DHT22;33568;45.286;9.900;2023-10-13T12:49:54;30.70;57.00
47805;DHT22;33568;45.286;9.900;2023-10-13T12:52:42;30.70;56.90
47805;DHT22;33568;45.286;9.900;2023-10-13T12:55:27;30.50;57.20
47805;DHT22;33568;45.286;9.900;2023-10-13T12:58:12;30.30;57.80
47805;DHT22;33568;45.286;9.900;2023-10-13T13:00:39;30.10;58.60
47805;DHT22;33568;45.286;9.900;2023-10-13T13:03:12;30.10;59.10
47805;DHT22;33568;45.286;9.900;2023-10-13T13:09:01;30.20;58.80
47805;DHT22;33568;45.286;9.900;2023-10-13T13:12:07;30.00;57.20
47805;DHT22;33568;45.286;9.900;2023-10-13T13:14:33;29.90;58.40
47805;DHT22;33568;45.286;9.900;2023-10-13T13:20:10;29.90;59.70
47805;DHT22;33568;45.286;9.900;2023-10-13T13:22:38;29.70;59.00
47805;DHT22;33568;45.286;9.900;2023-10-13T13:25:05;29.50;58.70
47805;DHT22;33568;45.286;9.900;2023-10-13T13:27:35;29.40;58.70
47805;DHT22;33568;45.286;9.900;2023-10-13T13:30:03;29.40;59.10
47805;DHT22;33568;45.286;9.900;2023-10-13T13:32:39;29.50;59.10
47805;DHT22;33568;45.286;9.900;2023-10-13T13:35:25;29.50;59.00
47805;DHT22;33568;45.286;9.900;2023-10-13T13:38:18;29.50;59.80
47805;DHT22;33568;45.286;9.900;2023-10-13T13:40:55;29.60;60.10
47805;DHT22;33568;45.286;9.900;2023-10-13T13:43:22;29.50;60.60
47805;DHT22;33568;45.286;9.900;2023-10-13T13:45:59;29.50;60.90
47805;DHT22;33568;45.286;9.900;2023-10-13T13:48:27;29.50;61.30
47805;DHT22;33568;45.286;9.900;2023-10-13T13:50:54;29.50;60.50
47805;DHT22;33568;45.286;9.900;2023-10-13T13:53:31;29.40;59.90
47805;DHT22;33568;45.286;9.900;2023-10-13T13:56:04;29.30;60.40
47805;DHT22;33568;45.286;9.900;2023-10-13T13:58:30;29.40;61.10
47805;DHT22;33568;45.286;9.900;2023-10-13T14:01:02;29.50;61.50
47805;DHT22;33568;45.286;9.900;2023-10-13T14:04:00;29.50;60.80
47805;DHT22;33568;45.286;9.900;2023-10-13T14:06:32;29.50;59.10
47805;DHT22;33568;45.286;9.900;2023-10-13T14:09:01;29.50;61.00
47805;DHT22;33568;45.286;9.900;2023-10-13T14:12:03;29.40;60.40
47805;DHT22;33568;45.286;9.900;2023-10-13T14:17:46;29.40;60.80
47805;DHT22;33568;45.286;9.900;2023-10-13T14:20:15;29.40;60.50
47805;DHT22;33568;45.286;9.900;2023-10-13T14:23:00;29.30;60.70
47805;DHT22;33568;45.286;9.900;2023-10-13T14:25:45;29.20;60.20
47805;DHT22;33568;45.286;9.900;2023-10-13T14:28:13;29.20;60.50
47805;DHT22;33568;45.286;9.900;2023-10-13T14:30:44;29.20;61.40
47805;DHT22;33568;45.286;9.900;2023-10-13T14:33:10;29.00;61.60
47805;DHT22;33568;45.286;9.900;2023-10-13T14:35:37;29.00;62.30
47805;DHT22;33568;45.286;9.900;2023-10-13T14:38:04;29.00;62.60
47805;DHT22;33568;45.286;9.900;2023-10-13T14:40:30;29.00;62.60
47805;DHT22;33568;45.286;9.900;2023-10-13T14:42:56;29.10;62.50
47805;DHT22;33568;45.286;9.900;2023-10-13T14:45:23;29.20;62.40
47805;DHT22;33568;45.286;9.900;2023-10-13T14:47:49;29.10;61.50
47805;DHT22;33568;45.286;9.900;2023-10-13T14:50:18;29.10;61.80
47805;DHT22;33568;45.286;9.900;2023-10-13T14:53:03;29.10;61.70
47805;DHT22;33568;45.286;9.900;2023-10-13T14:55:48;29.00;61.20
47805;DHT22;33568;45.286;9.900;2023-10-13T14:58:17;29.00;61.00
47805;DHT22;33568;45.286;9.900;2023-10-13T15:00:44;28.90;60.80
47805;DHT22;33568;45.286;9.900;2023-10-13T15:03:12;28.80;60.80
47805;DHT22;33568;45.286;9.900;2023-10-13T15:05:38;28.80;61.60
47805;DHT22;33568;45.286;9.900;2023-10-13T15:08:05;28.80;61.70
47805;DHT22;33568;45.286;9.900;2023-10-13T15:10:51;28.90;62.20
47805;DHT22;33568;45.286;9.900;2023-10-13T15:13:17;28.90;62.70
47805;DHT22;33568;45.286;9.900;2023-10-13T15:15:44;28.90;63.10
47805;DHT22;33568;45.286;9.900;2023-10-13T15:18:29;28.90;63.40
47805;DHT22;33568;45.286;9.900;2023-10-13T15:20:57;28.80;62.30
47805;DHT22;33568;45.286;9.900;2023-10-13T15:23:24;28.80;63.80
47805;DHT22;33568;45.286;9.900;2023-10-13T15:26:32;28.80;64.00
47805;DHT22;33568;45.286;9.900;2023-10-13T15:29:18;28.70;63.80
47805;DHT22;33568;45.286;9.900;2023-10-13T15:31:45;28.60;64.70
47805;DHT22;33568;45.286;9.900;2023-10-13T15:34:30;28.60;64.50
47805;DHT22;33568;45.286;9.900;2023-10-13T15:36:57;28.50;64.60
47805;DHT22;33568;45.286;9.900;2023-10-13T15:39:24;28.40;65.10
47805;DHT22;33568;45.286;9.900;2023-10-13T15:41:55;28.30;64.80
47805;DHT22;33568;45.286;9.900;2023-10-13T15:44:25;28.20;64.10
47805;DHT22;33568;45.286;9.900;2023-10-13T15:46:56;28.10;63.50
47805;DHT22;33568;45.286;9.900;2023-10-13T15:49:41;28.00;64.00
47805;DHT22;33568;45.286;9.900;2023-10-13T15:52:08;27.90;64.70
47805;DHT22;33568;45.286;9.900;2023-10-13T15:54:37;27.80;64.90
47805;DHT22;33568;45.286;9.900;2023-10-13T15:57:25;27.80;64.50
47805;DHT22;33568;45.286;9.900;2023-10-13T16:00:12;27.70;64.10
47805;DHT22;33568;45.286;9.900;2023-10-13T16:02:56;27.60;65.50
47805;DHT22;33568;45.286;9.900;2023-10-13T16:05:33;27.50;66.00
47805;DHT22;33568;45.286;9.900;2023-10-13T16:11:08;27.30;66.80
47805;DHT22;33568;45.286;9.900;2023-10-13T16:13:43;27.30;66.90
47805;DHT22;33568;45.286;9.900;2023-10-13T16:16:23;27.30;67.10
47805;DHT22;33568;45.286;9.900;2023-10-13T16:18:51;27.20;66.50
47805;DHT22;33568;45.286;9.900;2023-10-13T16:24:24;27.20;65.90
47805;DHT22;33568;45.286;9.900;2023-10-13T16:27:09;27.10;65.00
47805;DHT22;33568;45.286;9.900;2023-10-13T16:29:40;27.10;65.90
47805;DHT22;33568;45.286;9.900;2023-10-13T16:32:28;27.10;66.50
47805;DHT22;33568;45.286;9.900;2023-10-13T16:34:54;27.00;66.80
47805;DHT22;33568;45.286;9.900;2023-10-13T16:40:24;26.80;68.10
47805;DHT22;33568;45.286;9.900;2023-10-13T16:43:09;26.80;68.70
47805;DHT22;33568;45.286;9.900;2023-10-13T16:45:39;26.70;68.70
47805;DHT22;33568;45.286;9.900;2023-10-13T16:48:24;26.60;69.50
47805;DHT22;33568;45.286;9.900;2023-10-13T16:50:52;26.50;69.80
47805;DHT22;33568;45.286;9.900;2023-10-13T16:53:42;26.50;69.90
47805;DHT22;33568;45.286;9.900;2023-10-13T16:56:31;26.40;70.40
47805;DHT22;33568;45.286;9.900;2023-10-13T16:58:57;26.30;70.20
47805;DHT22;33568;45.286;9.900;2023-10-13T17:01:24;26.20;71.30
47805;DHT22;33568;45.286;9.900;2023-10-13T17:03:50;26.20;71.70
47805;DHT22;33568;45.286;9.900;2023-10-13T17:09:40;26.00;71.30
47805;DHT22;33568;45.286;9.900;2023-10-13T17:12:25;26.00;72.60
47805;DHT22;33568;45.286;9.900;2023-10-13T17:17:58;25.90;73.00
47805;DHT22;33568;45.286;9.900;2023-10-13T17:23:52;25.80;72.40
47805;DHT22;33568;45.286;9.900;2023-10-13T17:26:37;25.80;73.70
47805;DHT22;33568;45.286;9.900;2023-10-13T17:29:03;25.80;73.80
47805;DHT22;33568;45.286;9.900;2023-10-13T17:31:35;25.80;73.90
47805;DHT22;33568;45.286;9.900;2023-10-13T17:34:02;25.80;74.20
47805;DHT22;33568;45.286;9.900;2023-10-13T17:39:52;25.70;74.20
47805;DHT22;33568;45.286;9.900;2023-10-13T17:42:18;25.60;75.00
47805;DHT22;33568;45.286;9.900;2023-10-13T17:44:45;25.60;74.70
47805;DHT22;33568;45.286;9.900;2023-10-13T17:47:31;25.60;75.20
47805;DHT22;33568;45.286;9.900;2023-10-13T17:49:58;25.50;75.40
47805;DHT22;33568;45.286;9.900;2023-10-13T17:52:45;25.50;75.70
47805;DHT22;33568;45.286;9.900;2023-10-13T17:55:14;25.50;75.00
47805;DHT22;33568;45.286;9.900;2023-10-13T17:57:43;25.50;76.20
47805;DHT22;33568;45.286;9.900;2023-10-13T18:00:12;25.50;76.30
47805;DHT22;33568;45.286;9.900;2023-10-13T18:02:42;25.40;76.40
47805;DHT22;33568;45.286;9.900;2023-10-13T18:05:12;25.30;76.60
47805;DHT22;33568;45.286;9.900;2023-10-13T18:07:40;25.30;77.00
47805;DHT22;33568;45.286;9.900;2023-10-13T18:10:08;25.20;77.30
47805;DHT22;33568;45.286;9.900;2023-10-13T18:12:36;25.20;77.50
47805;DHT22;33568;45.286;9.900;2023-10-13T18:15:44;25.20;77.80
47805;DHT22;33568;45.286;9.900;2023-10-13T18:18:10;25.10;76.40
47805;DHT22;33568;45.286;9.900;2023-10-13T18:20:39;25.10;78.00
47805;DHT22;33568;45.286;9.900;2023-10-13T18:23:06;25.00;78.00
47805;DHT22;33568;45.286;9.900;2023-10-13T18:25:36;25.00;78.50
47805;DHT22;33568;45.286;9.900;2023-10-13T18:28:22;25.00;78.60
47805;DHT22;33568;45.286;9.900;2023-10-13T18:30:59;25.00;78.50
47805;DHT22;33568;45.286;9.900;2023-10-13T18:33:30;25.00;78.10
47805;DHT22;33568;45.286;9.900;2023-10-13T18:36:19;25.00;78.60
47805;DHT22;33568;45.286;9.900;2023-10-13T18:39:04;25.00;77.60
47805;DHT22;33568;45.286;9.900;2023-10-13T18:41:49;25.00;78.50
47805;DHT22;33568;45.286;9.900;2023-10-13T18:44:33;25.00;78.70
47805;DHT22;33568;45.286;9.900;2023-10-13T18:47:37;25.00;78.80
47805;DHT22;33568;45.286;9.900;2023-10-13T18:50:23;25.00;78.80
47805;DHT22;33568;45.286;9.900;2023-10-13T18:56:31;25.00;78.10
47805;DHT22;33568;45.286;9.900;2023-10-13T18:59:17;25.00;79.00
47805;DHT22;33568;45.286;9.900;2023-10-13T19:01:44;25.00;79.10
47805;DHT22;33568;45.286;9.900;2023-10-13T19:04:32;25.00;79.30
47805;DHT22;33568;45.286;9.900;2023-10-13T19:07:01;25.00;79.20
47805;DHT22;33568;45.286;9.900;2023-10-13T19:15:26;24.70;80.10
47805;DHT22;33568;45.286;9.900;2023-10-13T19:17:53;24.60;80.40